Time;durP1;ratioP1;P1;durP2;ratioP2;P2;SDS_P1;SDS_P2;PMS_P1;PMS_P2;Temp;Humidity;BMP_temperature;BMP_pressure;BME280_temperature;BME280_humidity;BME280_pressure;Samples;Min_cycle;Max_cycle;Signal;HPM_P1;HPM_P2
2022/01/06 00:02:25;;;;;;;26.80;3.90;;;5.30;99.90;;;;;;5034906;28;20435;-57
2022/01/06 00:04:51;;;;;;;13.18;3.15;;;5.40;99.90;;;;;;5035781;28;20108;-57
2022/01/06 00:07:16;;;;;;;17.08;3.97;;;5.40;99.90;;;;;;5033709;28;20079;-56
2022/01/06 00:09:42;;;;;;;14.25;3.30;;;5.40;99.90;;;;;;5035039;28;20033;-56
2022/01/06 00:12:14;;;;;;;20.08;4.13;;;5.40;99.90;;;;;;5034934;28;20398;-56
2022/01/06 00:17:53;;;;;;;21.65;4.35;;;5.30;99.90;;;;;;5034884;28;20120;-57
2022/01/06 00:25:32;;;;;;;20.95;3.90;;;5.10;99.90;;;;;;5033960;28;20040;-57
2022/01/06 00:27:58;;;;;;;20.70;4.22;;;5.00;99.90;;;;;;5035065;28;20475;-57
2022/01/06 00:30:24;;;;;;;21.05;4.28;;;5.00;99.90;;;;;;5034468;28;20051;-57
2022/01/06 00:32:51;;;;;;;30.92;5.30;;;5.00;99.90;;;;;;5033358;28;20033;-57
2022/01/06 00:35:17;;;;;;;21.45;3.90;;;4.90;99.90;;;;;;5034483;28;20113;-57
2022/01/06 00:37:42;;;;;;;17.92;3.85;;;4.90;99.90;;;;;;5034559;28;20114;-57
2022/01/06 00:40:08;;;;;;;18.80;4.63;;;4.90;99.90;;;;;;5034767;28;20013;-58
2022/01/06 00:42:34;;;;;;;20.02;3.30;;;4.80;99.90;;;;;;5034406;28;20088;-58
2022/01/06 00:44:59;;;;;;;24.48;3.55;;;4.80;99.90;;;;;;5033352;28;20028;-57
2022/01/06 00:47:25;;;;;;;22.17;3.28;;;4.70;99.90;;;;;;5034473;28;20017;-58
2022/01/06 00:49:50;;;;;;;19.95;3.78;;;4.70;99.90;;;;;;5034586;28;20026;-58
2022/01/06 00:52:16;;;;;;;18.33;3.33;;;4.60;99.90;;;;;;5034317;28;20083;-58
2022/01/06 00:54:42;;;;;;;15.93;3.60;;;4.60;99.90;;;;;;5034751;28;20021;-58
2022/01/06 00:57:07;;;;;;;19.88;3.50;;;4.50;99.90;;;;;;5034185;28;20033;-58
2022/01/06 00:59:33;;;;;;;19.05;3.33;;;4.50;99.90;;;;;;5033852;28;20029;-58
2022/01/06 01:01:59;;;;;;;21.70;4.18;;;4.50;99.90;;;;;;5033912;28;20284;-58
2022/01/06 01:04:24;;;;;;;19.33;3.08;;;4.50;99.90;;;;;;5032274;28;20026;-57
2022/01/06 01:06:50;;;;;;;25.83;4.18;;;4.40;99.90;;;;;;5034463;28;20087;-58
2022/01/06 01:09:16;;;;;;;23.42;4.50;;;4.40;99.90;;;;;;5032976;28;20026;-58
2022/01/06 01:11:41;;;;;;;30.58;4.95;;;4.40;99.90;;;;;;5034131;28;20026;-58
2022/01/06 01:14:17;;;;;;;21.67;4.05;;;4.40;99.90;;;;;;5032698;28;20025;-58
2022/01/06 01:16:52;;;;;;;24.00;4.18;;;4.40;99.90;;;;;;5033672;28;20060;-58
2022/01/06 01:19:18;;;;;;;29.20;5.38;;;4.40;99.90;;;;;;5032384;28;20371;-58
2022/01/06 01:21:45;;;;;;;30.73;4.45;;;4.30;99.90;;;;;;5033728;28;20059;-58
2022/01/06 01:24:10;;;;;;;24.27;4.20;;;4.30;99.90;;;;;;5034178;28;20391;-58
2022/01/06 01:26:36;;;;;;;28.55;4.38;;;4.30;99.90;;;;;;5031885;28;20048;-58
2022/01/06 01:29:02;;;;;;;34.20;5.28;;;4.20;99.90;;;;;;5033656;28;20098;-58
2022/01/06 01:31:35;;;;;;;19.52;4.15;;;4.30;99.90;;;;;;5032299;28;20021;-58
2022/01/06 01:34:08;;;;;;;21.63;4.03;;;4.20;99.90;;;;;;5033660;28;20594;-58
2022/01/06 01:36:34;;;;;;;27.13;4.82;;;4.30;99.90;;;;;;5033059;28;20033;-58
2022/01/06 01:38:59;;;;;;;23.75;4.20;;;4.20;99.90;;;;;;5032203;28;20021;-59
2022/01/06 01:41:25;;;;;;;28.83;4.15;;;4.10;99.90;;;;;;5034087;28;20467;-57
2022/01/06 01:43:53;;;;;;;29.15;5.28;;;4.20;99.90;;;;;;5033545;28;20501;-58
2022/01/06 01:46:27;;;;;;;21.50;4.40;;;4.10;99.90;;;;;;5033739;28;20418;-58
2022/01/06 01:49:13;;;;;;;31.52;4.15;;;4.10;99.90;;;;;;5033184;28;20414;-58
2022/01/06 01:51:39;;;;;;;34.35;4.28;;;4.10;99.90;;;;;;5033285;28;20404;-58
2022/01/06 01:54:05;;;;;;;31.30;5.40;;;4.10;99.90;;;;;;5032397;28;20029;-58
2022/01/06 01:56:30;;;;;;;27.13;4.50;;;4.10;99.90;;;;;;5033188;28;20029;-58
2022/01/06 01:58:57;;;;;;;25.13;4.80;;;4.10;99.90;;;;;;5033228;28;20036;-58
2022/01/06 02:01:22;;;;;;;31.27;4.45;;;4.10;99.90;;;;;;5033418;28;20021;-58
2022/01/06 02:03:48;;;;;;;21.58;4.55;;;4.10;99.90;;;;;;5033014;28;20052;-58
2022/01/06 02:06:14;;;;;;;36.05;5.07;;;4.10;99.90;;;;;;5031916;28;20034;-58
2022/01/06 02:08:39;;;;;;;25.80;4.45;;;4.00;99.90;;;;;;5032886;28;20041;-58
2022/01/06 02:11:05;;;;;;;28.92;4.63;;;4.00;99.90;;;;;;5032417;28;20017;-58
2022/01/06 02:13:31;;;;;;;30.60;3.97;;;4.00;99.90;;;;;;5032015;28;20132;-58
2022/01/06 02:15:59;;;;;;;29.13;4.07;;;4.00;99.90;;;;;;5031215;28;20065;-58
2022/01/06 02:18:26;;;;;;;37.15;4.82;;;3.90;99.90;;;;;;5032595;28;20064;-58
2022/01/06 02:20:52;;;;;;;23.75;4.57;;;3.90;99.90;;;;;;5032656;28;20070;-58
2022/01/06 02:23:21;;;;;;;30.15;4.25;;;3.90;99.90;;;;;;5032779;28;20029;-58
2022/01/06 02:25:48;;;;;;;18.95;3.83;;;3.90;99.90;;;;;;5031157;28;20057;-58
2022/01/06 02:28:17;;;;;;;26.92;4.82;;;3.90;99.90;;;;;;5032465;28;20017;-58
2022/01/06 02:30:46;;;;;;;34.35;5.20;;;3.90;99.90;;;;;;5032458;28;20395;-58
2022/01/06 02:33:12;;;;;;;35.13;4.93;;;3.90;99.90;;;;;;5033102;28;20026;-58
2022/01/06 02:35:38;;;;;;;31.58;4.70;;;3.80;99.90;;;;;;5032392;28;20566;-59
2022/01/06 02:38:04;;;;;;;31.00;4.28;;;3.80;99.90;;;;;;5032660;28;20028;-58
2022/01/06 02:40:29;;;;;;;24.63;4.45;;;3.90;99.90;;;;;;5032519;28;20034;-58
2022/01/06 02:42:57;;;;;;;27.25;3.60;;;3.90;99.90;;;;;;5032584;28;20104;-58
2022/01/06 02:45:27;;;;;;;26.58;4.50;;;3.90;99.90;;;;;;5032274;28;20026;-58
2022/01/06 02:47:54;;;;;;;23.60;4.55;;;3.90;99.90;;;;;;5032483;28;20091;-58
2022/01/06 02:50:20;;;;;;;27.42;4.40;;;3.90;99.90;;;;;;5032253;28;20052;-58
2022/01/06 02:52:46;;;;;;;31.48;4.45;;;3.90;99.90;;;;;;5030993;28;20057;-58
2022/01/06 02:55:13;;;;;;;28.33;4.45;;;3.90;99.90;;;;;;5031527;28;20029;-58
2022/01/06 02:57:39;;;;;;;22.35;4.43;;;3.90;99.90;;;;;;5030951;28;20087;-58
2022/01/06 03:00:10;;;;;;;27.65;4.82;;;3.90;99.90;;;;;;5032322;28;20052;-58
2022/01/06 03:02:36;;;;;;;26.13;3.97;;;3.90;99.90;;;;;;5032271;28;20033;-58
2022/01/06 03:05:03;;;;;;;26.08;4.13;;;4.00;99.90;;;;;;5031739;28;20071;-58
2022/01/06 03:07:29;;;;;;;25.83;4.15;;;4.00;99.90;;;;;;5031875;28;20057;-58
2022/01/06 03:09:56;;;;;;;24.30;5.32;;;4.10;99.90;;;;;;5032138;28;20029;-58
2022/01/06 03:12:34;;;;;;;19.77;4.20;;;4.20;99.90;;;;;;5031648;28;20041;-58
2022/01/06 03:15:01;;;;;;;30.33;3.92;;;4.30;99.90;;;;;;5031418;28;20022;-58
2022/01/06 03:17:26;;;;;;;28.48;4.57;;;4.30;99.90;;;;;;5031755;28;20545;-58
2022/01/06 03:19:52;;;;;;;23.92;4.40;;;4.40;99.90;;;;;;5031877;28;20026;-58
2022/01/06 03:22:18;;;;;;;26.58;4.80;;;4.50;99.90;;;;;;5046844;28;20500;-58
2022/01/06 03:24:44;;;;;;;28.05;4.95;;;4.50;99.90;;;;;;5032177;28;20441;-58
2022/01/06 03:27:09;;;;;;;29.95;4.72;;;4.50;99.90;;;;;;5031275;28;20041;-58
2022/01/06 03:29:36;;;;;;;40.55;5.75;;;4.50;99.90;;;;;;5031844;28;20046;-58
2022/01/06 03:32:02;;;;;;;31.95;5.38;;;4.40;99.90;;;;;;5031327;28;20134;-58
2022/01/06 03:34:31;;;;;;;26.80;4.53;;;4.40;99.90;;;;;;5031094;28;20021;-58
2022/01/06 03:37:02;;;;;;;21.15;5.00;;;4.40;99.90;;;;;;5030723;28;20528;-59
2022/01/06 03:39:27;;;;;;;24.90;4.15;;;4.50;99.90;;;;;;5030131;28;20025;-59
2022/01/06 03:41:53;;;;;;;27.30;4.45;;;4.50;99.90;;;;;;5030877;28;20523;-59
2022/01/06 03:44:19;;;;;;;23.23;4.05;;;4.50;99.90;;;;;;5031959;28;20479;-58
2022/01/06 03:46:44;;;;;;;26.23;4.68;;;4.60;99.90;;;;;;5031475;28;20029;-58
2022/01/06 03:49:10;;;;;;;26.17;4.45;;;4.60;99.90;;;;;;5031693;28;20028;-58
2022/01/06 03:51:36;;;;;;;28.65;4.28;;;4.60;99.90;;;;;;5031753;28;20029;-58
2022/01/06 03:54:02;;;;;;;20.15;4.28;;;4.70;99.90;;;;;;5030683;28;20386;-59
2022/01/06 03:56:27;;;;;;;19.08;4.47;;;4.70;99.90;;;;;;5031713;28;20553;-59
2022/01/06 03:58:53;;;;;;;25.15;4.20;;;4.70;99.90;;;;;;5031124;28;20422;-59
2022/01/06 04:01:18;;;;;;;24.23;4.53;;;4.60;99.90;;;;;;5032037;28;20025;-59
2022/01/06 04:03:46;;;;;;;21.33;3.85;;;4.60;99.90;;;;;;5031054;28;20104;-59
2022/01/06 04:06:11;;;;;;;21.45;3.70;;;4.60;99.90;;;;;;5031607;28;20041;-59
2022/01/06 04:08:37;;;;;;;25.98;4.00;;;4.50;99.90;;;;;;5031458;28;20108;-59
2022/01/06 04:11:03;;;;;;;25.58;3.97;;;4.50;99.90;;;;;;5031824;28;20025;-59
2022/01/06 04:13:29;;;;;;;19.73;3.88;;;4.50;99.90;;;;;;5031956;28;20104;-59
2022/01/06 04:15:55;;;;;;;28.38;4.25;;;4.50;99.90;;;;;;5030100;28;20089;-59
2022/01/06 04:18:21;;;;;;;22.58;5.07;;;4.40;99.90;;;;;;5033371;28;20076;-59
2022/01/06 04:20:46;;;;;;;29.02;4.45;;;4.30;99.90;;;;;;5035159;28;20025;-59
2022/01/06 04:23:12;;;;;;;29.42;5.68;;;4.30;99.90;;;;;;5034726;28;20025;-58
2022/01/06 04:25:38;;;;;;;24.25;5.22;;;4.20;99.90;;;;;;5034600;28;20033;-58
2022/01/06 04:28:03;;;;;;;24.55;4.88;;;4.20;99.90;;;;;;5034245;28;20049;-58
2022/01/06 04:30:29;;;;;;;28.05;4.68;;;4.10;99.90;;;;;;5033757;28;20028;-58
2022/01/06 04:32:55;;;;;;;24.15;4.75;;;4.10;99.90;;;;;;5033980;28;20105;-58
2022/01/06 04:35:20;;;;;;;22.92;4.65;;;4.00;99.90;;;;;;5034139;28;20017;-58
2022/01/06 04:37:46;;;;;;;27.33;5.05;;;4.00;99.90;;;;;;5034897;28;20018;-58
2022/01/06 04:40:12;;;;;;;26.65;5.05;;;4.00;99.90;;;;;;5034579;28;20026;-58
2022/01/06 04:42:38;;;;;;;25.13;4.88;;;4.00;99.90;;;;;;5033325;28;20025;-58
2022/01/06 04:45:04;;;;;;;33.95;6.53;;;4.10;99.90;;;;;;5034307;28;20029;-58
2022/01/06 04:47:30;;;;;;;23.35;5.60;;;4.10;99.90;;;;;;5034623;28;20036;-58
2022/01/06 04:49:55;;;;;;;28.83;5.18;;;4.10;99.90;;;;;;5034126;28;20021;-58
2022/01/06 04:52:21;;;;;;;21.20;5.18;;;4.10;99.90;;;;;;5034358;28;20048;-58
2022/01/06 04:54:47;;;;;;;29.35;5.80;;;4.10;99.90;;;;;;5033162;28;20518;-58
2022/01/06 04:57:12;;;;;;;27.15;4.97;;;4.20;99.90;;;;;;5032944;28;20041;-58
2022/01/06 04:59:38;;;;;;;28.63;5.68;;;4.20;99.90;;;;;;5034250;28;20100;-58
2022/01/06 05:02:04;;;;;;;22.73;4.72;;;4.30;99.90;;;;;;5034901;28;20033;-58
2022/01/06 05:04:30;;;;;;;21.25;5.22;;;4.30;99.90;;;;;;5033525;28;20380;-58
2022/01/06 05:06:55;;;;;;;24.35;5.43;;;4.40;99.90;;;;;;5033402;28;20028;-58
2022/01/06 05:09:21;;;;;;;22.27;5.43;;;4.40;99.90;;;;;;5034573;28;20033;-58
2022/01/06 05:11:47;;;;;;;30.60;5.47;;;4.40;99.90;;;;;;5034323;28;20029;-58
2022/01/06 05:14:12;;;;;;;26.67;5.28;;;4.40;99.90;;;;;;5034510;28;20048;-58
2022/01/06 05:16:38;;;;;;;21.80;4.68;;;4.40;99.90;;;;;;5033950;28;20018;-58
2022/01/06 05:19:04;;;;;;;21.83;4.85;;;4.40;99.90;;;;;;5034237;28;20021;-58
2022/01/06 05:21:31;;;;;;;21.70;4.95;;;4.50;99.90;;;;;;5033985;28;20510;-58
2022/01/06 05:23:57;;;;;;;22.35;4.90;;;4.50;99.90;;;;;;5034118;28;20082;-58
2022/01/06 05:26:23;;;;;;;25.85;6.13;;;4.50;99.90;;;;;;5033396;28;20053;-58
2022/01/06 05:28:49;;;;;;;24.33;4.95;;;4.50;99.90;;;;;;5032882;28;20505;-58
2022/01/06 05:31:15;;;;;;;27.58;5.90;;;4.50;99.90;;;;;;5033288;28;20041;-58
2022/01/06 05:33:41;;;;;;;23.73;5.35;;;4.50;99.90;;;;;;5033854;28;20056;-58
2022/01/06 05:36:06;;;;;;;25.90;4.80;;;4.40;99.90;;;;;;5032993;28;20108;-58
2022/01/06 05:38:32;;;;;;;18.13;5.10;;;4.50;99.90;;;;;;5033546;28;20025;-58
2022/01/06 05:40:58;;;;;;;25.52;5.45;;;4.40;99.90;;;;;;5034102;28;20087;-58
2022/01/06 05:43:24;;;;;;;30.95;5.80;;;4.50;99.90;;;;;;5033459;28;20029;-58
2022/01/06 05:45:51;;;;;;;32.83;6.72;;;4.40;99.90;;;;;;5033401;28;20075;-58
2022/01/06 05:48:18;;;;;;;27.27;5.90;;;4.40;99.90;;;;;;5033787;28;20028;-58
2022/01/06 05:50:44;;;;;;;22.33;5.30;;;4.40;99.90;;;;;;5033477;28;20025;-58
2022/01/06 05:53:10;;;;;;;24.33;5.60;;;4.30;99.90;;;;;;5033766;28;20032;-58
2022/01/06 05:55:36;;;;;;;28.63;6.55;;;4.30;99.90;;;;;;5033996;28;20044;-58
2022/01/06 05:58:01;;;;;;;23.95;5.75;;;4.30;99.90;;;;;;5032176;28;20029;-58
2022/01/06 06:00:27;;;;;;;25.88;5.40;;;4.40;99.90;;;;;;5033169;28;20528;-58
2022/01/06 06:02:52;;;;;;;25.10;5.50;;;4.30;99.90;;;;;;5032444;28;20123;-58
2022/01/06 06:05:18;;;;;;;23.65;6.07;;;4.40;99.90;;;;;;5033717;28;20029;-58
2022/01/06 06:07:43;;;;;;;26.88;6.03;;;4.40;99.90;;;;;;5033506;28;20025;-58
2022/01/06 06:10:09;;;;;;;16.67;5.45;;;4.40;99.90;;;;;;5033475;28;20069;-58
2022/01/06 06:12:35;;;;;;;19.83;5.32;;;4.50;99.90;;;;;;5033374;28;20030;-58
2022/01/06 06:15:00;;;;;;;23.17;6.28;;;4.50;99.90;;;;;;5033208;28;20041;-59
2022/01/06 06:17:26;;;;;;;22.05;5.43;;;4.60;99.90;;;;;;5033047;28;20025;-58
2022/01/06 06:19:51;;;;;;;27.80;5.80;;;4.60;99.90;;;;;;5031692;28;20100;-58
2022/01/06 06:22:17;;;;;;;20.27;4.70;;;4.60;99.90;;;;;;5032643;28;20025;-59
2022/01/06 06:24:44;;;;;;;22.90;5.10;;;4.60;99.90;;;;;;5032997;28;20104;-59
2022/01/06 06:27:10;;;;;;;25.67;6.07;;;4.60;99.90;;;;;;5033389;28;20099;-59
2022/01/06 06:29:37;;;;;;;21.33;6.18;;;4.60;99.90;;;;;;5032776;28;20430;-58
2022/01/06 06:32:03;;;;;;;20.63;5.88;;;4.60;99.90;;;;;;5032832;28;20029;-58
2022/01/06 06:34:29;;;;;;;25.58;6.10;;;4.70;99.90;;;;;;5030718;28;20025;-58
2022/01/06 06:36:54;;;;;;;31.52;6.70;;;4.70;99.90;;;;;;5032751;28;20475;-58
2022/01/06 06:39:20;;;;;;;21.70;6.32;;;4.70;99.90;;;;;;5032657;28;20104;-58
2022/01/06 06:41:46;;;;;;;33.75;7.38;;;4.70;99.90;;;;;;5032534;28;20107;-58
2022/01/06 06:44:11;;;;;;;22.83;5.80;;;4.70;99.90;;;;;;5033034;28;20029;-58
2022/01/06 06:46:37;;;;;;;28.80;7.20;;;4.70;99.90;;;;;;5031297;28;20542;-59
2022/01/06 06:49:03;;;;;;;25.73;5.97;;;4.70;99.90;;;;;;5032411;28;20026;-58
2022/01/06 06:51:29;;;;;;;22.13;6.20;;;4.60;99.90;;;;;;5031889;28;20056;-58
2022/01/06 06:53:54;;;;;;;29.25;7.32;;;4.60;99.90;;;;;;5032572;28;20026;-58
2022/01/06 06:56:20;;;;;;;30.60;7.60;;;4.60;99.90;;;;;;5032535;28;20033;-59
2022/01/06 06:58:45;;;;;;;24.50;7.05;;;4.60;99.90;;;;;;5032239;28;20112;-59
2022/01/06 07:01:11;;;;;;;24.23;7.50;;;4.60;99.90;;;;;;5031777;28;20035;-59
2022/01/06 07:03:37;;;;;;;27.05;6.85;;;4.50;99.90;;;;;;5032178;28;20079;-58
2022/01/06 07:06:03;;;;;;;33.72;8.18;;;4.50;99.90;;;;;;5032015;28;20083;-59
2022/01/06 07:08:28;;;;;;;24.73;8.57;;;4.50;99.90;;;;;;5030972;28;20029;-59
2022/01/06 07:10:54;;;;;;;30.00;8.35;;;4.40;99.90;;;;;;5032409;28;20033;-58
2022/01/06 07:13:20;;;;;;;32.08;8.38;;;4.40;99.90;;;;;;5032934;28;20029;-58
2022/01/06 07:15:46;;;;;;;30.58;8.15;;;4.50;99.90;;;;;;5032363;28;20049;-58
2022/01/06 07:18:12;;;;;;;27.40;7.50;;;4.40;99.90;;;;;;5032646;28;20025;-58
2022/01/06 07:20:37;;;;;;;27.45;7.28;;;4.40;99.90;;;;;;5032263;28;20558;-58
2022/01/06 07:23:03;;;;;;;31.50;7.43;;;4.40;99.90;;;;;;5031911;28;20025;-61
2022/01/06 07:25:30;;;;;;;30.55;7.30;;;4.40;99.90;;;;;;5031791;28;20029;-58
2022/01/06 07:27:56;;;;;;;25.10;7.18;;;4.30;99.90;;;;;;5031465;28;20605;-58
2022/01/06 07:30:23;;;;;;;24.17;7.65;;;4.30;99.90;;;;;;5031536;28;20026;-58
2022/01/06 07:32:50;;;;;;;26.50;9.20;;;4.30;99.90;;;;;;5031277;28;20509;-59
2022/01/06 07:35:19;;;;;;;38.30;7.47;;;4.30;99.90;;;;;;5032132;28;20060;-59
2022/01/06 07:37:46;;;;;;;24.70;7.00;;;4.40;99.90;;;;;;5031271;28;20018;-59
2022/01/06 07:40:13;;;;;;;24.92;6.88;;;4.40;99.90;;;;;;5031168;28;20021;-58
2022/01/06 07:42:39;;;;;;;31.85;7.47;;;4.40;99.90;;;;;;5029791;28;20049;-58
2022/01/06 07:45:05;;;;;;;33.35;7.55;;;4.40;99.90;;;;;;5031715;28;20052;-58
2022/01/06 07:47:33;;;;;;;31.90;7.90;;;4.50;99.90;;;;;;5031497;28;20382;-58
2022/01/06 07:49:59;;;;;;;40.80;8.10;;;4.50;99.90;;;;;;5031781;28;20029;-56
2022/01/06 07:52:25;;;;;;;28.52;7.15;;;4.60;99.90;;;;;;5032539;28;20031;-57
2022/01/06 07:54:51;;;;;;;29.33;7.15;;;4.50;99.90;;;;;;5036154;28;20398;-57
2022/01/06 07:57:16;;;;;;;32.33;7.82;;;4.60;99.90;;;;;;5033681;28;20040;-57
2022/01/06 07:59:42;;;;;;;25.45;8.40;;;4.70;99.90;;;;;;5035748;28;20060;-58
2022/01/06 08:02:08;;;;;;;28.50;8.70;;;4.60;99.90;;;;;;5035768;28;20059;-56
2022/01/06 08:04:35;;;;;;;26.98;7.55;;;4.60;99.90;;;;;;5035836;28;20401;-57
2022/01/06 08:07:01;;;;;;;25.38;8.05;;;4.50;99.90;;;;;;5035461;28;20021;-58
2022/01/06 08:09:26;;;;;;;26.85;9.90;;;4.40;99.90;;;;;;5035606;28;20113;-57
2022/01/06 08:11:52;;;;;;;36.03;10.40;;;4.50;99.90;;;;;;5035360;28;20036;-57
2022/01/06 08:14:18;;;;;;;29.67;10.38;;;4.50;99.90;;;;;;5035057;28;20030;-58
2022/01/06 08:16:44;;;;;;;20.92;9.13;;;4.50;99.90;;;;;;5035386;28;20076;-57
2022/01/06 08:19:10;;;;;;;26.63;9.68;;;4.50;99.90;;;;;;5034759;28;20057;-57
2022/01/06 08:21:36;;;;;;;24.52;8.57;;;4.40;99.90;;;;;;5035463;28;20025;-57
2022/01/06 08:24:01;;;;;;;18.70;7.63;;;4.30;99.90;;;;;;5035370;28;20041;-56
2022/01/06 08:26:27;;;;;;;16.20;5.05;;;4.30;99.90;;;;;;5034983;28;20449;-56
2022/01/06 08:28:53;;;;;;;17.33;4.05;;;4.30;99.90;;;;;;5035128;28;20095;-57
2022/01/06 08:31:18;;;;;;;19.30;4.38;;;4.30;99.90;;;;;;5035333;28;20041;-56
2022/01/06 08:33:47;;;;;;;20.05;4.10;;;4.30;99.90;;;;;;5034097;28;20033;-55
2022/01/06 08:36:14;;;;;;;20.55;4.25;;;4.30;99.90;;;;;;5035402;28;20056;-55
2022/01/06 08:38:39;;;;;;;14.65;4.93;;;4.30;99.90;;;;;;5033662;28;20479;-55
2022/01/06 08:41:05;;;;;;;22.00;6.07;;;4.30;99.90;;;;;;5034884;28;20219;-55
2022/01/06 08:43:30;;;;;;;7.95;2.15;;;4.20;99.90;;;;;;5018552;28;20033;-56
2022/01/06 08:45:57;;;;;;;89.43;7.03;;;4.20;99.90;;;;;;5027284;28;20406;-56
2022/01/06 08:48:24;;;;;;;18.83;4.57;;;4.30;99.90;;;;;;5030443;28;20022;-57
2022/01/06 08:50:50;;;;;;;19.27;5.72;;;4.20;99.90;;;;;;5048463;28;20380;-56
2022/01/06 08:53:16;;;;;;;14.82;4.50;;;4.30;99.90;;;;;;5030694;28;20030;-56
2022/01/06 08:55:46;;;;;;;16.13;3.40;;;4.30;99.90;;;;;;5024791;28;20022;-55
2022/01/06 08:58:13;;;;;;;13.65;3.17;;;4.40;99.90;;;;;;5029994;28;20025;-55
2022/01/06 09:00:39;;;;;;;21.13;3.15;;;4.50;99.90;;;;;;5032962;28;20493;-55
2022/01/06 09:03:06;;;;;;;21.27;6.18;;;4.60;99.90;;;;;;5028001;28;20062;-55
2022/01/06 09:05:33;;;;;;;27.70;8.48;;;4.70;99.90;;;;;;5015535;28;20034;-56
2022/01/06 09:07:59;;;;;;;25.42;9.48;;;4.60;99.90;;;;;;5014628;28;20030;-55
2022/01/06 09:10:29;;;;;;;27.92;10.68;;;4.50;99.90;;;;;;5019472;28;20029;-56
2022/01/06 09:12:55;;;;;;;30.83;9.57;;;4.60;99.90;;;;;;5034019;28;20029;-56
2022/01/06 09:15:21;;;;;;;22.55;8.02;;;4.60;99.90;;;;;;5033685;28;20087;-56
2022/01/06 09:17:47;;;;;;;23.42;7.05;;;4.50;99.90;;;;;;5024427;28;20026;-56
2022/01/06 09:20:13;;;;;;;34.25;8.85;;;4.40;99.90;;;;;;5032790;28;20056;-56
2022/01/06 09:22:43;;;;;;;38.08;9.60;;;4.40;99.90;;;;;;5032421;28;20490;-56
2022/01/06 09:25:11;;;;;;;29.35;8.93;;;4.50;99.90;;;;;;5030857;28;20482;-57
2022/01/06 09:27:37;;;;;;;31.42;9.43;;;4.50;99.90;;;;;;5014375;28;20038;-55
2022/01/06 09:30:04;;;;;;;28.85;9.23;;;4.40;99.90;;;;;;5014578;28;20022;-55
2022/01/06 09:32:29;;;;;;;29.48;9.27;;;4.40;99.90;;;;;;5017167;28;20056;-55
2022/01/06 09:34:55;;;;;;;31.80;9.50;;;4.40;99.90;;;;;;5029550;28;20054;-55
2022/01/06 09:37:21;;;;;;;26.40;9.35;;;4.40;99.90;;;;;;5032529;28;20072;-55
2022/01/06 09:39:47;;;;;;;26.67;8.82;;;4.40;99.90;;;;;;5032180;28;20022;-55
2022/01/06 09:42:15;;;;;;;27.90;8.30;;;4.30;99.90;;;;;;5033121;28;20037;-55
2022/01/06 09:44:41;;;;;;;22.42;7.28;;;4.30;99.90;;;;;;5033738;28;20025;-55
2022/01/06 09:47:07;;;;;;;23.25;7.65;;;4.30;99.90;;;;;;5032834;28;20032;-55
2022/01/06 09:49:40;;;;;;;27.63;8.50;;;4.20;99.90;;;;;;5032485;28;20036;-55
2022/01/06 09:52:06;;;;;;;;;;;4.20;99.90;;;;;;5023995;28;20018;-57
2022/01/06 09:54:33;;;;;;;26.88;8.32;;;4.20;99.90;;;;;;5015415;28;19906;-56
2022/01/06 09:56:59;;;;;;;19.75;6.75;;;4.20;99.90;;;;;;5030834;28;20116;-56
2022/01/06 09:59:25;;;;;;;22.55;7.07;;;4.50;99.90;;;;;;5032876;28;20313;-55
2022/01/06 10:01:50;;;;;;;22.10;6.43;;;5.00;99.90;;;;;;5030500;28;20037;-55
2022/01/06 10:04:27;;;;;;;27.17;7.38;;;5.30;99.90;;;;;;5018712;28;20061;-55
2022/01/06 10:07:03;;;;;;;23.23;7.68;;;5.70;99.90;;;;;;5030783;28;20495;-55
2022/01/06 10:09:29;;;;;;;22.08;7.55;;;6.10;99.90;;;;;;5048003;28;20033;-55
2022/01/06 10:11:57;;;;;;;25.35;7.05;;;6.40;99.90;;;;;;5031205;28;20543;-56
2022/01/06 10:14:31;;;;;;;18.10;6.70;;;6.80;99.90;;;;;;5012549;28;20032;-56
2022/01/06 10:16:58;;;;;;;20.05;6.45;;;7.20;99.90;;;;;;5024557;28;20393;-56
2022/01/06 10:19:24;;;;;;;18.67;6.28;;;7.50;99.90;;;;;;5032699;28;20037;-56
2022/01/06 10:21:57;;;;;;;19.23;6.70;;;7.50;99.90;;;;;;5029702;28;20025;-56
2022/01/06 10:24:25;;;;;;;18.35;6.18;;;7.60;99.90;;;;;;5032595;28;20037;-56
2022/01/06 10:27:01;;;;;;;17.40;6.38;;;7.60;99.90;;;;;;5030048;28;20136;-55
2022/01/06 10:29:46;;;;;;;28.35;6.95;;;7.40;99.90;;;;;;5019579;28;20026;-56
2022/01/06 10:32:15;;;;;;;26.17;8.05;;;7.20;99.90;;;;;;5032627;28;20116;-58
2022/01/06 10:35:02;;;;;;;21.63;6.35;;;7.70;99.90;;;;;;5032967;28;20104;-57
2022/01/06 10:37:35;;;;;;;18.20;6.53;;;7.60;99.90;;;;;;5023281;28;20061;-57
2022/01/06 10:40:10;;;;;;;14.38;6.82;;;7.80;99.90;;;;;;5012794;28;20052;-58
2022/01/06 10:42:38;;;;;;;19.25;6.15;;;8.10;99.90;;;;;;5023538;28;20034;-58
2022/01/06 10:45:13;;;;;;;21.35;6.28;;;8.40;99.90;;;;;;5030967;28;20155;-58
2022/01/06 10:47:40;;;;;;;22.38;6.78;;;8.40;99.90;;;;;;5020933;28;20043;-57
2022/01/06 10:50:13;;;;;;;18.40;5.45;;;8.20;99.90;;;;;;5030040;28;20083;-57
2022/01/06 10:52:42;;;;;;;17.55;6.35;;;8.00;99.90;;;;;;5015897;28;20034;-56
2022/01/06 10:55:11;;;;;;;13.30;5.93;;;7.60;99.90;;;;;;5030788;28;20033;-57
2022/01/06 10:57:56;;;;;;;28.42;7.28;;;7.90;99.90;;;;;;5030023;28;20538;-57
2022/01/06 11:00:33;;;;;;;17.55;6.00;;;7.90;99.90;;;;;;5019767;28;20036;-57
2022/01/06 11:03:12;;;;;;;20.27;6.55;;;7.80;99.90;;;;;;5025660;28;20395;-57
2022/01/06 11:05:40;;;;;;;21.90;7.10;;;7.90;99.90;;;;;;5030858;28;20486;-57
2022/01/06 11:08:07;;;;;;;19.35;6.63;;;8.20;99.90;;;;;;5031482;28;20029;-58
2022/01/06 11:10:40;;;;;;;16.13;5.72;;;8.50;99.90;;;;;;5029494;28;20014;-58
2022/01/06 11:13:06;;;;;;;21.13;6.90;;;8.50;99.90;;;;;;5024159;28;20155;-60
2022/01/06 11:15:33;;;;;;;17.35;5.95;;;8.70;99.90;;;;;;5030487;28;20437;-58
2022/01/06 11:18:01;;;;;;;19.67;6.20;;;9.00;99.90;;;;;;5012092;28;20032;-58
2022/01/06 11:20:27;;;;;;;18.58;6.75;;;9.00;99.90;;;;;;5016411;28;20022;-59
2022/01/06 11:22:56;;;;;;;19.58;6.88;;;9.20;99.90;;;;;;5013069;28;20026;-59
2022/01/06 11:25:37;;;;;;;17.63;5.63;;;9.20;99.90;;;;;;5014888;28;20537;-59
2022/01/06 11:28:11;;;;;;;17.30;5.82;;;9.60;99.90;;;;;;5011114;28;20149;-59
2022/01/06 11:30:46;;;;;;;19.67;6.28;;;9.10;99.90;;;;;;5018337;28;20017;-59
2022/01/06 11:33:13;;;;;;;24.38;6.40;;;9.10;99.90;;;;;;5031941;28;20026;-59
2022/01/06 11:35:53;;;;;;;20.38;6.82;;;9.00;99.90;;;;;;5030713;28;20113;-59
2022/01/06 11:38:23;;;;;;;13.45;5.65;;;9.30;99.90;;;;;;5030979;28;20089;-59
2022/01/06 11:40:50;;;;;;;18.33;6.20;;;9.70;99.90;;;;;;5028496;28;20022;-59
2022/01/06 11:43:17;;;;;;;26.00;6.38;;;9.70;99.90;;;;;;5031450;28;20026;-59
2022/01/06 11:45:43;;;;;;;14.32;5.07;;;9.90;99.90;;;;;;5030342;28;20021;-59
2022/01/06 11:48:10;;;;;;;17.25;5.72;;;10.10;99.90;;;;;;5031079;28;20726;-58
2022/01/06 11:50:38;;;;;;;16.80;6.05;;;10.00;99.90;;;;;;5044756;28;20445;-59
2022/01/06 11:53:04;;;;;;;18.95;5.63;;;10.40;99.90;;;;;;5028093;28;20040;-59
2022/01/06 11:55:42;;;;;;;20.10;5.50;;;10.60;99.90;;;;;;5023062;28;20059;-59
2022/01/06 11:58:21;;;;;;;13.80;5.63;;;10.40;99.90;;;;;;5030677;28;20414;-59
2022/01/06 12:01:00;;;;;;;15.07;5.18;;;9.90;99.90;;;;;;5028718;28;20033;-59
2022/01/06 12:03:45;;;;;;;15.20;5.38;;;9.80;99.90;;;;;;5011812;28;20117;-59
2022/01/06 12:06:28;;;;;;;19.42;5.88;;;10.10;99.90;;;;;;5020841;28;20041;-59
2022/01/06 12:08:55;;;;;;;20.58;6.55;;;10.40;99.90;;;;;;5011330;28;20026;-59
2022/01/06 12:11:36;;;;;;;17.42;5.80;;;9.90;99.90;;;;;;5013442;28;20044;-58
2022/01/06 12:14:02;;;;;;;16.13;5.97;;;9.90;99.90;;;;;;5015003;28;20079;-58
2022/01/06 12:16:41;;;;;;;19.90;5.70;;;9.90;99.90;;;;;;5020568;28;20426;-58
2022/01/06 12:19:16;;;;;;;15.95;5.78;;;9.70;99.90;;;;;;5010001;28;20083;-58
2022/01/06 12:21:42;;;;;;;16.95;5.82;;;9.90;99.90;;;;;;5024444;28;20030;-59
2022/01/06 12:24:10;;;;;;;18.17;5.55;;;10.00;99.90;;;;;;5026065;28;20028;-58
2022/01/06 12:26:36;;;;;;;18.75;6.10;;;9.60;99.90;;;;;;5022801;28;20037;-58
2022/01/06 12:29:04;;;;;;;17.65;5.95;;;9.90;99.90;;;;;;5021288;28;20076;-58
2022/01/06 12:31:31;;;;;;;23.50;6.68;;;9.70;99.90;;;;;;5020828;28;20021;-58
2022/01/06 12:34:00;;;;;;;19.50;6.85;;;10.20;99.90;;;;;;5012835;28;20395;-58
2022/01/06 12:36:29;;;;;;;20.45;6.28;;;10.30;99.90;;;;;;5021359;28;20402;-58
2022/01/06 12:38:56;;;;;;;21.40;6.90;;;10.00;99.90;;;;;;5013137;28;20037;-58
2022/01/06 12:41:32;;;;;;;19.45;6.75;;;9.80;99.90;;;;;;5026123;28;20032;-58
2022/01/06 12:43:58;;;;;;;16.85;6.38;;;10.40;99.90;;;;;;5034651;28;20511;-59
2022/01/06 12:46:30;;;;;;;15.95;6.28;;;10.70;99.90;;;;;;5025899;28;20091;-58
2022/01/06 12:48:56;;;;;;;27.25;7.38;;;11.20;99.90;;;;;;5013415;28;20121;-59
2022/01/06 12:51:30;;;;;;;21.48;6.35;;;11.10;99.90;;;;;;5016663;28;20679;-59
2022/01/06 12:54:08;;;;;;;19.08;5.57;;;11.20;99.90;;;;;;5032728;28;20018;-59
2022/01/06 12:56:53;;;;;;;21.88;6.72;;;10.50;99.90;;;;;;5028104;28;20538;-59